sensor_id;sensor_type;location;lat;lon;timestamp;pressure;altitude;pressure_sealevel;temperature;humidity
76808;BME280;65758;45.458;11.062;2023-02-17T00:00:54;102366.78;;;8.02;66.16
76808;BME280;65758;45.458;11.062;2023-02-17T00:03:21;102369.59;;;8.03;66.07
76808;BME280;65758;45.458;11.062;2023-02-17T00:05:48;102367.40;;;8.03;65.72
76808;BME280;65758;45.458;11.062;2023-02-17T00:08:17;102367.84;;;8.04;65.85
76808;BME280;65758;45.458;11.062;2023-02-17T00:10:44;102371.05;;;8.05;66.11
76808;BME280;65758;45.458;11.062;2023-02-17T00:13:11;102372.20;;;8.04;65.58
76808;BME280;65758;45.458;11.062;2023-02-17T00:15:38;102374.89;;;8.03;65.60
76808;BME280;65758;45.458;11.062;2023-02-17T00:18:05;102372.65;;;8.01;65.68
76808;BME280;65758;45.458;11.062;2023-02-17T00:20:32;102372.45;;;7.99;66.10
76808;BME280;65758;45.458;11.062;2023-02-17T00:22:58;102372.81;;;7.97;65.95
76808;BME280;65758;45.458;11.062;2023-02-17T00:25:25;102374.18;;;7.93;65.81
76808;BME280;65758;45.458;11.062;2023-02-17T00:27:52;102371.65;;;7.90;65.83
76808;BME280;65758;45.458;11.062;2023-02-17T00:30:19;102372.09;;;7.86;65.80
76808;BME280;65758;45.458;11.062;2023-02-17T00:32:45;102383.80;;;7.82;65.76
76808;BME280;65758;45.458;11.062;2023-02-17T00:35:12;102389.14;;;7.75;65.77
76808;BME280;65758;45.458;11.062;2023-02-17T00:37:40;102387.03;;;7.73;65.96
76808;BME280;65758;45.458;11.062;2023-02-17T00:40:12;102381.14;;;7.75;66.30
76808;BME280;65758;45.458;11.062;2023-02-17T00:42:39;102381.08;;;7.79;66.36
76808;BME280;65758;45.458;11.062;2023-02-17T00:45:06;102379.67;;;7.80;66.28
76808;BME280;65758;45.458;11.062;2023-02-17T00:47:33;102375.93;;;7.79;66.16
76808;BME280;65758;45.458;11.062;2023-02-17T00:50:00;102375.69;;;7.77;66.25
76808;BME280;65758;45.458;11.062;2023-02-17T00:52:27;102380.36;;;7.74;66.11
76808;BME280;65758;45.458;11.062;2023-02-17T00:54:53;102374.66;;;7.71;66.02
76808;BME280;65758;45.458;11.062;2023-02-17T00:57:20;102373.40;;;7.67;66.26
76808;BME280;65758;45.458;11.062;2023-02-17T00:59:47;102373.05;;;7.62;66.20
76808;BME280;65758;45.458;11.062;2023-02-17T01:02:13;102370.62;;;7.56;66.56
76808;BME280;65758;45.458;11.062;2023-02-17T01:04:40;102367.85;;;7.50;66.47
76808;BME280;65758;45.458;11.062;2023-02-17T01:07:08;102371.52;;;7.45;66.47
76808;BME280;65758;45.458;11.062;2023-02-17T01:09:35;102366.48;;;7.40;66.25
76808;BME280;65758;45.458;11.062;2023-02-17T01:12:02;102368.10;;;7.32;66.18
76808;BME280;65758;45.458;11.062;2023-02-17T01:14:30;102365.98;;;7.29;66.45
76808;BME280;65758;45.458;11.062;2023-02-17T01:16:57;102369.32;;;7.30;67.00
76808;BME280;65758;45.458;11.062;2023-02-17T01:19:25;102371.11;;;7.33;67.03
76808;BME280;65758;45.458;11.062;2023-02-17T01:21:52;102366.75;;;7.34;66.84
76808;BME280;65758;45.458;11.062;2023-02-17T01:24:18;102364.54;;;7.34;67.03
76808;BME280;65758;45.458;11.062;2023-02-17T01:26:45;102358.95;;;7.34;67.07
76808;BME280;65758;45.458;11.062;2023-02-17T01:29:12;102361.54;;;7.30;66.90
76808;BME280;65758;45.458;11.062;2023-02-17T01:31:39;102357.53;;;7.26;67.00
76808;BME280;65758;45.458;11.062;2023-02-17T01:34:10;102358.88;;;7.21;67.55
76808;BME280;65758;45.458;11.062;2023-02-17T01:36:37;102356.14;;;7.16;67.47
76808;BME280;65758;45.458;11.062;2023-02-17T01:39:04;102356.66;;;7.12;67.68
76808;BME280;65758;45.458;11.062;2023-02-17T01:41:31;102356.34;;;7.08;67.26
76808;BME280;65758;45.458;11.062;2023-02-17T01:44:08;102352.95;;;7.05;67.07
76808;BME280;65758;45.458;11.062;2023-02-17T01:46:37;102347.68;;;7.07;67.41
76808;BME280;65758;45.458;11.062;2023-02-17T01:51:51;102350.64;;;7.15;66.88
76808;BME280;65758;45.458;11.062;2023-02-17T01:54:28;102354.13;;;7.16;67.05
76808;BME280;65758;45.458;11.062;2023-02-17T01:56:57;102352.98;;;7.17;66.35
76808;BME280;65758;45.458;11.062;2023-02-17T01:59:27;102352.02;;;7.17;66.71
76808;BME280;65758;45.458;11.062;2023-02-17T02:01:58;102346.17;;;7.18;66.43
76808;BME280;65758;45.458;11.062;2023-02-17T02:04:29;102338.20;;;7.15;66.64
76808;BME280;65758;45.458;11.062;2023-02-17T02:06:58;102337.55;;;7.11;66.15
76808;BME280;65758;45.458;11.062;2023-02-17T02:09:38;102330.92;;;7.03;66.38
76808;BME280;65758;45.458;11.062;2023-02-17T02:12:22;102324.75;;;6.95;66.74
76808;BME280;65758;45.458;11.062;2023-02-17T02:14:50;102325.52;;;6.91;66.44
76808;BME280;65758;45.458;11.062;2023-02-17T02:29:05;102314.77;;;6.76;66.59
76808;BME280;65758;45.458;11.062;2023-02-17T02:31:44;102317.47;;;6.75;66.55
76808;BME280;65758;45.458;11.062;2023-02-17T02:34:21;102323.44;;;6.71;66.49
76808;BME280;65758;45.458;11.062;2023-02-17T02:36:50;102323.42;;;6.66;66.62
76808;BME280;65758;45.458;11.062;2023-02-17T02:39:23;102317.30;;;6.59;66.77
76808;BME280;65758;45.458;11.062;2023-02-17T02:41:54;102316.84;;;6.55;66.97
76808;BME280;65758;45.458;11.062;2023-02-17T02:44:23;102316.89;;;6.53;66.91
76808;BME280;65758;45.458;11.062;2023-02-17T02:47:40;102322.77;;;6.52;66.73
76808;BME280;65758;45.458;11.062;2023-02-17T02:50:12;102318.70;;;6.48;66.58
76808;BME280;65758;45.458;11.062;2023-02-17T02:58:06;102321.16;;;6.40;67.28
76808;BME280;65758;45.458;11.062;2023-02-17T03:01:01;102320.82;;;6.35;67.17
76808;BME280;65758;45.458;11.062;2023-02-17T03:03:43;102323.05;;;6.31;66.89
76808;BME280;65758;45.458;11.062;2023-02-17T03:09:10;102318.33;;;6.21;66.65
76808;BME280;65758;45.458;11.062;2023-02-17T03:11:39;102315.79;;;6.19;66.94
76808;BME280;65758;45.458;11.062;2023-02-17T03:14:14;102319.10;;;6.20;66.98
76808;BME280;65758;45.458;11.062;2023-02-17T03:16:44;102319.56;;;6.23;67.09
76808;BME280;65758;45.458;11.062;2023-02-17T03:19:13;102317.56;;;6.23;67.27
76808;BME280;65758;45.458;11.062;2023-02-17T03:21:46;102319.05;;;6.22;67.31
76808;BME280;65758;45.458;11.062;2023-02-17T03:24:14;102321.68;;;6.21;67.41
76808;BME280;65758;45.458;11.062;2023-02-17T03:26:42;102322.25;;;6.20;67.06
76808;BME280;65758;45.458;11.062;2023-02-17T03:29:08;102330.47;;;6.14;67.32
76808;BME280;65758;45.458;11.062;2023-02-17T03:31:36;102335.43;;;6.10;67.16
76808;BME280;65758;45.458;11.062;2023-02-17T03:34:04;102338.35;;;6.06;67.40
76808;BME280;65758;45.458;11.062;2023-02-17T03:36:32;102336.06;;;6.04;67.37
76808;BME280;65758;45.458;11.062;2023-02-17T03:38:59;102341.73;;;6.01;67.35
76808;BME280;65758;45.458;11.062;2023-02-17T03:41:26;102339.79;;;5.98;67.15
76808;BME280;65758;45.458;11.062;2023-02-17T03:43:53;102341.65;;;5.94;67.08
76808;BME280;65758;45.458;11.062;2023-02-17T03:46:20;102339.89;;;5.91;67.10
76808;BME280;65758;45.458;11.062;2023-02-17T03:48:46;102341.06;;;5.92;67.11
76808;BME280;65758;45.458;11.062;2023-02-17T03:51:17;102342.28;;;5.96;67.59
76808;BME280;65758;45.458;11.062;2023-02-17T03:53:44;102343.08;;;5.99;67.59
76808;BME280;65758;45.458;11.062;2023-02-17T03:56:12;102344.79;;;6.00;67.65
76808;BME280;65758;45.458;11.062;2023-02-17T03:58:40;102344.02;;;6.00;67.37
76808;BME280;65758;45.458;11.062;2023-02-17T04:01:09;102347.09;;;6.01;67.34
76808;BME280;65758;45.458;11.062;2023-02-17T04:03:37;102346.58;;;5.98;66.80
76808;BME280;65758;45.458;11.062;2023-02-17T04:06:05;102349.17;;;5.96;66.90
76808;BME280;65758;45.458;11.062;2023-02-17T04:08:33;102346.48;;;5.94;66.68
76808;BME280;65758;45.458;11.062;2023-02-17T04:11:02;102349.02;;;5.93;66.63
76808;BME280;65758;45.458;11.062;2023-02-17T04:13:29;102354.08;;;5.89;66.64
76808;BME280;65758;45.458;11.062;2023-02-17T04:15:57;102354.94;;;5.86;66.59
76808;BME280;65758;45.458;11.062;2023-02-17T04:18:24;102359.64;;;5.82;66.73
76808;BME280;65758;45.458;11.062;2023-02-17T04:20:52;102363.88;;;5.80;66.81
76808;BME280;65758;45.458;11.062;2023-02-17T04:23:19;102366.10;;;5.77;66.77
76808;BME280;65758;45.458;11.062;2023-02-17T04:25:46;102366.73;;;5.78;66.72
76808;BME280;65758;45.458;11.062;2023-02-17T04:28:15;102367.13;;;5.82;66.81
76808;BME280;65758;45.458;11.062;2023-02-17T04:30:46;102363.98;;;5.84;66.64
76808;BME280;65758;45.458;11.062;2023-02-17T04:33:14;102361.46;;;5.84;66.61
76808;BME280;65758;45.458;11.062;2023-02-17T04:35:42;102361.04;;;5.81;66.64
76808;BME280;65758;45.458;11.062;2023-02-17T04:38:09;102360.38;;;5.75;66.38
76808;BME280;65758;45.458;11.062;2023-02-17T04:40:36;102358.96;;;5.67;66.36
76808;BME280;65758;45.458;11.062;2023-02-17T04:43:04;102359.77;;;5.61;66.60
76808;BME280;65758;45.458;11.062;2023-02-17T04:45:31;102358.23;;;5.55;66.70
76808;BME280;65758;45.458;11.062;2023-02-17T04:47:57;102360.47;;;5.47;66.77
76808;BME280;65758;45.458;11.062;2023-02-17T04:50:24;102357.81;;;5.38;66.70
76808;BME280;65758;45.458;11.062;2023-02-17T04:52:51;102353.79;;;5.28;66.87
76808;BME280;65758;45.458;11.062;2023-02-17T04:55:17;102351.20;;;5.19;66.90
76808;BME280;65758;45.458;11.062;2023-02-17T04:57:44;102351.10;;;5.11;67.21
76808;BME280;65758;45.458;11.062;2023-02-17T05:00:11;102350.18;;;5.08;67.23
76808;BME280;65758;45.458;11.062;2023-02-17T05:02:38;102347.50;;;5.07;67.44
76808;BME280;65758;45.458;11.062;2023-02-17T05:05:04;102350.61;;;5.09;67.52
76808;BME280;65758;45.458;11.062;2023-02-17T05:07:31;102350.23;;;5.09;67.67
76808;BME280;65758;45.458;11.062;2023-02-17T05:09:58;102347.94;;;5.08;67.42
76808;BME280;65758;45.458;11.062;2023-02-17T05:12:25;102347.48;;;5.08;67.39
76808;BME280;65758;45.458;11.062;2023-02-17T05:14:51;102344.67;;;5.06;67.31
76808;BME280;65758;45.458;11.062;2023-02-17T05:17:18;102354.31;;;5.06;67.66
76808;BME280;65758;45.458;11.062;2023-02-17T05:19:45;102355.89;;;5.05;67.57
76808;BME280;65758;45.458;11.062;2023-02-17T05:22:11;102357.21;;;5.03;67.73
76808;BME280;65758;45.458;11.062;2023-02-17T05:24:38;102354.56;;;4.96;67.83
76808;BME280;65758;45.458;11.062;2023-02-17T05:27:05;102357.72;;;4.92;67.90
76808;BME280;65758;45.458;11.062;2023-02-17T05:29:31;102360.28;;;4.86;67.80
76808;BME280;65758;45.458;11.062;2023-02-17T05:31:58;102364.71;;;4.77;67.81
76808;BME280;65758;45.458;11.062;2023-02-17T05:34:25;102362.89;;;4.72;68.18
76808;BME280;65758;45.458;11.062;2023-02-17T05:36:52;102359.52;;;4.66;67.95
76808;BME280;65758;45.458;11.062;2023-02-17T05:39:19;102367.56;;;4.65;68.07
76808;BME280;65758;45.458;11.062;2023-02-17T05:41:48;102371.37;;;4.67;68.34
76808;BME280;65758;45.458;11.062;2023-02-17T05:44:15;102371.95;;;4.68;68.32
76808;BME280;65758;45.458;11.062;2023-02-17T05:46:41;102374.23;;;4.67;68.18
76808;BME280;65758;45.458;11.062;2023-02-17T05:49:08;102371.61;;;4.64;68.26
76808;BME280;65758;45.458;11.062;2023-02-17T05:51:36;102374.23;;;4.62;68.33
76808;BME280;65758;45.458;11.062;2023-02-17T05:54:03;102377.25;;;4.59;68.61
76808;BME280;65758;45.458;11.062;2023-02-17T05:56:29;102381.75;;;4.57;68.57
76808;BME280;65758;45.458;11.062;2023-02-17T05:58:57;102383.55;;;4.55;68.56
76808;BME280;65758;45.458;11.062;2023-02-17T06:01:23;102388.44;;;4.53;68.73
76808;BME280;65758;45.458;11.062;2023-02-17T06:03:50;102392.98;;;4.53;68.81
76808;BME280;65758;45.458;11.062;2023-02-17T06:06:17;102390.63;;;4.49;68.88
76808;BME280;65758;45.458;11.062;2023-02-17T06:08:44;102393.85;;;4.46;68.80
76808;BME280;65758;45.458;11.062;2023-02-17T06:11:10;102406.70;;;4.42;69.01
76808;BME280;65758;45.458;11.062;2023-02-17T06:13:37;102408.08;;;4.41;68.95
76808;BME280;65758;45.458;11.062;2023-02-17T06:16:04;102415.02;;;4.42;69.02
76808;BME280;65758;45.458;11.062;2023-02-17T06:18:32;102420.21;;;4.44;69.12
76808;BME280;65758;45.458;11.062;2023-02-17T06:20:58;102425.11;;;4.46;69.25
76808;BME280;65758;45.458;11.062;2023-02-17T06:23:26;102422.66;;;4.45;69.02
76808;BME280;65758;45.458;11.062;2023-02-17T06:25:53;102424.02;;;4.44;69.07
76808;BME280;65758;45.458;11.062;2023-02-17T06:28:20;102426.21;;;4.44;68.95
76808;BME280;65758;45.458;11.062;2023-02-17T06:30:47;102428.71;;;4.42;68.84
76808;BME280;65758;45.458;11.062;2023-02-17T06:33:14;102429.84;;;4.40;68.80
76808;BME280;65758;45.458;11.062;2023-02-17T06:35:41;102430.43;;;4.37;68.81
76808;BME280;65758;45.458;11.062;2023-02-17T06:38:09;102436.40;;;4.31;68.89
76808;BME280;65758;45.458;11.062;2023-02-17T06:40:36;102439.04;;;4.28;68.88
76808;BME280;65758;45.458;11.062;2023-02-17T06:43:05;102435.36;;;4.27;69.26
76808;BME280;65758;45.458;11.062;2023-02-17T06:45:33;102434.02;;;4.26;69.14
76808;BME280;65758;45.458;11.062;2023-02-17T06:48:00;102437.34;;;4.24;69.05
76808;BME280;65758;45.458;11.062;2023-02-17T06:50:27;102431.38;;;4.24;68.85
76808;BME280;65758;45.458;11.062;2023-02-17T06:52:54;102430.77;;;4.24;69.11
76808;BME280;65758;45.458;11.062;2023-02-17T06:55:20;102433.19;;;4.25;69.06
76808;BME280;65758;45.458;11.062;2023-02-17T06:57:47;102432.91;;;4.28;69.23
76808;BME280;65758;45.458;11.062;2023-02-17T07:00:14;102437.63;;;4.30;69.07
76808;BME280;65758;45.458;11.062;2023-02-17T07:02:41;102442.80;;;4.31;68.89
76808;BME280;65758;45.458;11.062;2023-02-17T07:05:08;102442.09;;;4.31;68.97
76808;BME280;65758;45.458;11.062;2023-02-17T07:07:35;102446.71;;;4.28;68.49
76808;BME280;65758;45.458;11.062;2023-02-17T07:10:02;102446.43;;;4.21;68.47
76808;BME280;65758;45.458;11.062;2023-02-17T07:12:29;102446.81;;;4.15;68.40
76808;BME280;65758;45.458;11.062;2023-02-17T07:14:55;102448.60;;;4.13;68.69
76808;BME280;65758;45.458;11.062;2023-02-17T07:17:22;102447.55;;;4.11;68.53
76808;BME280;65758;45.458;11.062;2023-02-17T07:19:49;102444.86;;;4.11;68.89
76808;BME280;65758;45.458;11.062;2023-02-17T07:22:16;102447.06;;;4.15;68.91
76808;BME280;65758;45.458;11.062;2023-02-17T07:24:43;102444.40;;;4.20;68.81
76808;BME280;65758;45.458;11.062;2023-02-17T07:27:09;102445.52;;;4.27;68.75
76808;BME280;65758;45.458;11.062;2023-02-17T07:29:36;102447.16;;;4.37;68.82
76808;BME280;65758;45.458;11.062;2023-02-17T07:32:03;102450.96;;;4.44;68.71
76808;BME280;65758;45.458;11.062;2023-02-17T07:34:30;102453.13;;;4.51;68.32
76808;BME280;65758;45.458;11.062;2023-02-17T07:36:57;102450.17;;;4.56;68.31
76808;BME280;65758;45.458;11.062;2023-02-17T07:39:23;102452.94;;;4.59;68.23
76808;BME280;65758;45.458;11.062;2023-02-17T07:41:50;102458.41;;;4.64;68.14
76808;BME280;65758;45.458;11.062;2023-02-17T07:44:17;102455.29;;;4.70;68.35
76808;BME280;65758;45.458;11.062;2023-02-17T07:46:43;102454.48;;;4.78;68.62
76808;BME280;65758;45.458;11.062;2023-02-17T07:49:10;102460.67;;;4.86;68.40
76808;BME280;65758;45.458;11.062;2023-02-17T07:51:37;102454.95;;;4.91;68.63
76808;BME280;65758;45.458;11.062;2023-02-17T07:54:04;102455.05;;;4.95;68.45
76808;BME280;65758;45.458;11.062;2023-02-17T07:56:31;102458.83;;;4.99;68.45
76808;BME280;65758;45.458;11.062;2023-02-17T07:58:59;102456.92;;;5.02;68.32
76808;BME280;65758;45.458;11.062;2023-02-17T08:01:25;102457.23;;;5.04;68.15
76808;BME280;65758;45.458;11.062;2023-02-17T08:03:52;102457.70;;;5.09;68.37
76808;BME280;65758;45.458;11.062;2023-02-17T08:06:22;102460.08;;;5.14;68.03
76808;BME280;65758;45.458;11.062;2023-02-17T08:08:50;102455.57;;;5.19;68.14
76808;BME280;65758;45.458;11.062;2023-02-17T08:11:35;102453.14;;;5.31;68.14
76808;BME280;65758;45.458;11.062;2023-02-17T08:14:23;102453.73;;;5.47;68.08
76808;BME280;65758;45.458;11.062;2023-02-17T08:16:51;102453.39;;;5.59;67.90
76808;BME280;65758;45.458;11.062;2023-02-17T08:19:18;102455.86;;;5.71;67.86
76808;BME280;65758;45.458;11.062;2023-02-17T08:21:46;102456.81;;;5.81;67.79
76808;BME280;65758;45.458;11.062;2023-02-17T08:24:13;102457.80;;;5.90;67.72
76808;BME280;65758;45.458;11.062;2023-02-17T08:26:42;102456.49;;;5.99;67.82
76808;BME280;65758;45.458;11.062;2023-02-17T08:29:08;102456.08;;;6.06;67.37
76808;BME280;65758;45.458;11.062;2023-02-17T08:31:35;102453.73;;;6.13;67.67
76808;BME280;65758;45.458;11.062;2023-02-17T08:34:07;102449.89;;;6.20;67.67
76808;BME280;65758;45.458;11.062;2023-02-17T08:36:35;102453.81;;;6.28;67.23
76808;BME280;65758;45.458;11.062;2023-02-17T08:39:08;102459.78;;;6.35;67.27
76808;BME280;65758;45.458;11.062;2023-02-17T08:41:37;102458.39;;;6.43;67.41
76808;BME280;65758;45.458;11.062;2023-02-17T08:44:10;102458.80;;;6.52;67.54
76808;BME280;65758;45.458;11.062;2023-02-17T08:46:37;102462.27;;;6.62;67.64
76808;BME280;65758;45.458;11.062;2023-02-17T08:49:05;102463.16;;;6.73;67.39
76808;BME280;65758;45.458;11.062;2023-02-17T08:51:33;102466.19;;;6.83;67.18
76808;BME280;65758;45.458;11.062;2023-02-17T08:54:01;102467.15;;;6.95;67.31
76808;BME280;65758;45.458;11.062;2023-02-17T08:56:29;102463.23;;;7.04;67.04
76808;BME280;65758;45.458;11.062;2023-02-17T08:58:56;102463.17;;;7.17;67.27
76808;BME280;65758;45.458;11.062;2023-02-17T09:01:23;102464.30;;;7.33;67.29
76808;BME280;65758;45.458;11.062;2023-02-17T09:03:52;102464.44;;;7.49;67.20
76808;BME280;65758;45.458;11.062;2023-02-17T09:06:20;102464.52;;;7.63;67.14
76808;BME280;65758;45.458;11.062;2023-02-17T09:08:47;102466.56;;;7.76;67.15
76808;BME280;65758;45.458;11.062;2023-02-17T09:11:15;102465.60;;;7.88;66.97
76808;BME280;65758;45.458;11.062;2023-02-17T09:13:45;102464.88;;;8.04;67.02
76808;BME280;65758;45.458;11.062;2023-02-17T09:16:12;102460.58;;;8.19;66.47
76808;BME280;65758;45.458;11.062;2023-02-17T09:18:39;102465.14;;;8.29;66.23
76808;BME280;65758;45.458;11.062;2023-02-17T09:21:10;102463.48;;;8.38;66.13
76808;BME280;65758;45.458;11.062;2023-02-17T09:23:37;102459.87;;;8.48;65.75
76808;BME280;65758;45.458;11.062;2023-02-17T09:26:06;102457.02;;;8.55;66.00
76808;BME280;65758;45.458;11.062;2023-02-17T09:28:33;102459.09;;;8.63;66.24
76808;BME280;65758;45.458;11.062;2023-02-17T09:31:18;102462.17;;;8.73;66.40
76808;BME280;65758;45.458;11.062;2023-02-17T09:33:47;102459.73;;;8.86;66.31
76808;BME280;65758;45.458;11.062;2023-02-17T09:36:16;102458.00;;;8.98;66.17
76808;BME280;65758;45.458;11.062;2023-02-17T09:38:44;102455.52;;;9.08;65.94
76808;BME280;65758;45.458;11.062;2023-02-17T09:41:31;102457.67;;;9.18;65.69
76808;BME280;65758;45.458;11.062;2023-02-17T09:44:15;102457.15;;;9.31;65.56
76808;BME280;65758;45.458;11.062;2023-02-17T09:47:02;102457.02;;;9.39;65.37
76808;BME280;65758;45.458;11.062;2023-02-17T09:49:38;102452.66;;;9.50;65.29
76808;BME280;65758;45.458;11.062;2023-02-17T09:52:34;102455.60;;;9.58;65.15
76808;BME280;65758;45.458;11.062;2023-02-17T09:55:09;102448.89;;;9.69;65.15
76808;BME280;65758;45.458;11.062;2023-02-17T09:58:05;102450.05;;;9.79;65.15
76808;BME280;65758;45.458;11.062;2023-02-17T10:00:32;102455.21;;;9.89;65.15
76808;BME280;65758;45.458;11.062;2023-02-17T10:03:38;102455.41;;;9.98;64.86
76808;BME280;65758;45.458;11.062;2023-02-17T10:06:15;102457.14;;;10.09;65.00
76808;BME280;65758;45.458;11.062;2023-02-17T10:08:50;102454.10;;;10.18;64.76
76808;BME280;65758;45.458;11.062;2023-02-17T10:11:32;102452.38;;;10.28;64.73
76808;BME280;65758;45.458;11.062;2023-02-17T10:14:14;102451.80;;;10.37;64.56
76808;BME280;65758;45.458;11.062;2023-02-17T10:16:49;102456.83;;;10.44;64.31
76808;BME280;65758;45.458;11.062;2023-02-17T10:19:25;102452.02;;;10.50;64.47
76808;BME280;65758;45.458;11.062;2023-02-17T10:22:01;102451.91;;;10.56;64.21
76808;BME280;65758;45.458;11.062;2023-02-17T10:24:31;102452.90;;;10.60;64.17
76808;BME280;65758;45.458;11.062;2023-02-17T10:32:53;102453.41;;;10.85;64.54
76808;BME280;65758;45.458;11.062;2023-02-17T10:38:16;102442.78;;;11.05;63.90
76808;BME280;65758;45.458;11.062;2023-02-17T10:40:46;102442.67;;;11.18;64.26
76808;BME280;65758;45.458;11.062;2023-02-17T10:43:21;102444.09;;;11.31;64.14
76808;BME280;65758;45.458;11.062;2023-02-17T10:45:50;102439.92;;;11.41;63.71
76808;BME280;65758;45.458;11.062;2023-02-17T10:50:52;102437.84;;;11.56;63.16
76808;BME280;65758;45.458;11.062;2023-02-17T10:53:26;102433.88;;;11.63;62.92
76808;BME280;65758;45.458;11.062;2023-02-17T10:59:02;102426.01;;;11.75;62.28
76808;BME280;65758;45.458;11.062;2023-02-17T11:01:32;102421.73;;;11.81;61.92
76808;BME280;65758;45.458;11.062;2023-02-17T11:04:05;102415.92;;;11.86;62.52
76808;BME280;65758;45.458;11.062;2023-02-17T11:06:50;102409.90;;;11.96;62.24
76808;BME280;65758;45.458;11.062;2023-02-17T11:09:25;102402.87;;;12.07;62.08
76808;BME280;65758;45.458;11.062;2023-02-17T11:12:12;102393.66;;;12.14;61.90
76808;BME280;65758;45.458;11.062;2023-02-17T11:14:45;102390.50;;;12.23;61.88
76808;BME280;65758;45.458;11.062;2023-02-17T11:17:17;102391.19;;;12.30;61.42
76808;BME280;65758;45.458;11.062;2023-02-17T11:19:55;102385.28;;;12.39;61.33
76808;BME280;65758;45.458;11.062;2023-02-17T11:22:42;102384.80;;;12.49;61.53
76808;BME280;65758;45.458;11.062;2023-02-17T11:25:20;102378.24;;;12.58;61.02
76808;BME280;65758;45.458;11.062;2023-02-17T11:28:13;102371.27;;;12.64;60.40
76808;BME280;65758;45.458;11.062;2023-02-17T11:30:50;102365.30;;;12.69;59.99
76808;BME280;65758;45.458;11.062;2023-02-17T11:33:38;102366.64;;;12.72;60.04
76808;BME280;65758;45.458;11.062;2023-02-17T11:36:06;102361.34;;;12.75;60.25
76808;BME280;65758;45.458;11.062;2023-02-17T11:41:06;102356.41;;;12.83;60.59
76808;BME280;65758;45.458;11.062;2023-02-17T11:43:34;102353.75;;;12.87;60.26
76808;BME280;65758;45.458;11.062;2023-02-17T11:46:37;102346.68;;;12.91;59.87
76808;BME280;65758;45.458;11.062;2023-02-17T11:51:58;102341.73;;;13.00;60.25
76808;BME280;65758;45.458;11.062;2023-02-17T12:00:19;102329.27;;;13.17;59.70
76808;BME280;65758;45.458;11.062;2023-02-17T12:05:50;102330.34;;;13.23;59.59
76808;BME280;65758;45.458;11.062;2023-02-17T12:08:26;102327.01;;;13.27;59.21
76808;BME280;65758;45.458;11.062;2023-02-17T12:11:13;102321.90;;;13.29;59.03
76808;BME280;65758;45.458;11.062;2023-02-17T12:13:59;102322.42;;;13.32;59.64
76808;BME280;65758;45.458;11.062;2023-02-17T12:17:03;102317.83;;;13.37;59.46
76808;BME280;65758;45.458;11.062;2023-02-17T12:25:26;102313.63;;;13.48;58.99
76808;BME280;65758;45.458;11.062;2023-02-17T12:36:16;102296.43;;;13.62;59.45
76808;BME280;65758;45.458;11.062;2023-02-17T12:38:48;102294.55;;;13.64;58.82
76808;BME280;65758;45.458;11.062;2023-02-17T12:41:39;102290.05;;;13.62;58.79
76808;BME280;65758;45.458;11.062;2023-02-17T12:44:14;102286.99;;;13.62;58.95
76808;BME280;65758;45.458;11.062;2023-02-17T12:46:47;102285.64;;;13.59;59.62
76808;BME280;65758;45.458;11.062;2023-02-17T12:49:20;102282.17;;;13.62;59.26
76808;BME280;65758;45.458;11.062;2023-02-17T12:52:07;102281.80;;;13.65;58.48
76808;BME280;65758;45.458;11.062;2023-02-17T12:54:53;102280.20;;;13.67;58.28
76808;BME280;65758;45.458;11.062;2023-02-17T12:59:55;102270.67;;;13.69;58.27
76808;BME280;65758;45.458;11.062;2023-02-17T13:02:24;102270.80;;;13.70;58.11
76808;BME280;65758;45.458;11.062;2023-02-17T13:04:59;102262.63;;;13.69;58.31
76808;BME280;65758;45.458;11.062;2023-02-17T13:09:57;102251.89;;;13.77;59.32
76808;BME280;65758;45.458;11.062;2023-02-17T13:14:56;102248.21;;;13.83;58.56
76808;BME280;65758;45.458;11.062;2023-02-17T13:17:53;102251.56;;;13.83;58.61
76808;BME280;65758;45.458;11.062;2023-02-17T13:20:36;102249.14;;;13.84;58.89
76808;BME280;65758;45.458;11.062;2023-02-17T13:23:09;102239.11;;;13.88;58.88
76808;BME280;65758;45.458;11.062;2023-02-17T13:25:36;102228.15;;;13.92;58.68
76808;BME280;65758;45.458;11.062;2023-02-17T13:28:17;102225.27;;;13.98;58.67
76808;BME280;65758;45.458;11.062;2023-02-17T13:30:45;102221.95;;;14.07;58.59
76808;BME280;65758;45.458;11.062;2023-02-17T13:35:47;102218.55;;;14.17;58.53
76808;BME280;65758;45.458;11.062;2023-02-17T13:38:28;102217.67;;;14.19;59.32
76808;BME280;65758;45.458;11.062;2023-02-17T13:41:01;102214.85;;;14.18;58.38
76808;BME280;65758;45.458;11.062;2023-02-17T13:43:33;102211.69;;;14.12;57.85
76808;BME280;65758;45.458;11.062;2023-02-17T13:46:05;102215.21;;;14.05;57.86
76808;BME280;65758;45.458;11.062;2023-02-17T13:48:34;102212.56;;;13.98;57.74
76808;BME280;65758;45.458;11.062;2023-02-17T13:51:06;102205.57;;;13.90;57.56
76808;BME280;65758;45.458;11.062;2023-02-17T13:53:38;102207.87;;;13.83;57.59
76808;BME280;65758;45.458;11.062;2023-02-17T13:56:08;102211.30;;;13.76;57.58
76808;BME280;65758;45.458;11.062;2023-02-17T13:58:40;102213.08;;;13.70;57.92
76808;BME280;65758;45.458;11.062;2023-02-17T14:01:14;102216.55;;;13.67;57.85
76808;BME280;65758;45.458;11.062;2023-02-17T14:03:47;102213.97;;;13.65;58.14
76808;BME280;65758;45.458;11.062;2023-02-17T14:06:39;102212.82;;;13.62;58.10
76808;BME280;65758;45.458;11.062;2023-02-17T14:09:27;102210.54;;;13.60;58.07
76808;BME280;65758;45.458;11.062;2023-02-17T14:11:55;102206.51;;;13.63;58.14
76808;BME280;65758;45.458;11.062;2023-02-17T14:14:27;102208.55;;;13.68;58.21
76808;BME280;65758;45.458;11.062;2023-02-17T14:17:00;102199.83;;;13.74;58.65
76808;BME280;65758;45.458;11.062;2023-02-17T14:19:28;102202.20;;;13.76;58.09
76808;BME280;65758;45.458;11.062;2023-02-17T14:24:38;102203.00;;;13.73;58.09